Dernières infos :  

21/08/2017  Mise à jour des tableaux d'analyses décadaires
02/08/2017 Mise en ligne de la synthèse climatologique de Juillet 2017 : 
CLIQUEZ ICI
01/08/2017  Mise à jour des tableaux d'analyses décadaires, mensuelles et annuelles : rubrique climatologie

31/07/2017 Vidéo du violent orage de dimanche soir 30/07 : CLIQUEZ ICI   

Si l'entête du tableau ne s'affiche pas correctement, => actualisez la page (F5 avec Internet Explorer, Chrome...).
Utilisez l'ascenseur sur la droite des lignes du tableau pour faire défiler verticalement les jours du mois.

TABLEAU DES DONNEES COMPLETES NOAA de NOVEMBRE 2013

DATE TEMPERATURE
sous abri
TEMPARATURE 
au sol
VENT  et  Indice de Refroidissement Eolien  PRECIPITATIONS (en mm/m2)
et Intensité
PRESSION ATMOSPHERIQUE (en hPa) HUMIDITE de l'AIR RADIATIONS SOLAIRES (en W/m2)
Mini Moy. Maxi Mini Moy. Maxi Moyen Rafale I.R.E.
Minii
Précip. jour Cumul mois Intensité Maxi Mini Moy. Maxi Mini Moy. Maxi Pic maxi du jour Total jour
01/11/2013 3.8° 10.8° 15.9° 1.7° 10.9° 18.3° 2.1km/h dir S 37km/h dir S 3.8° 0.2 0.2   1012 1018.7 1023.9 78% 88.3% 96% 350 15 898
02/11/2013 13.9° 15.7° 18.7° 12.8° 15.6° 24.4° 11.3km/h dir S 46.7km/h dir S 11.8° 23.4 23.6 85.4mm/h 1009.2 1011 1012.7 65% 82.1% 94% 599 22 628
03/11/2013 8.4° 11.3° 14.4° 4.4° 11.2° 22.2° 4km/h dir S 37km/h dir O 7.1° 8.4 32 33mm/h 1009.1 1013.2 1016.4 57% 81.3% 94% 629 23 169
04/11/2013 8.8° 9.9° 11.2° 7.2° 8.9° 10.6° 8.9km/h dir S 48.3km/h dir SE 5.5° 22.2 54.2 16.8mm/h 996 1001.4 1010.6 79% 90.1% 95% 139 4 481
05/11/2013 7.6° 9.5° 0.6° 6.6° 9.4° 1.8km/h dir S 24.1km/h dir S 3.8 58 4.6mm/h 1002.6 1004.7 1008.6 86% 93.1% 96% 155 8 799
06/11/2013 9.5° 12.6° 15.7° 8.9° 12.4° 20.6° 1.3km/h dir S 20.9km/h dir S 9.5° 3.2 61.2 3.6mm/h 1008.3 1013.3 1016.3 84% 91.7% 96% 297 11 509
07/11/2013 12.6° 14.7° 18.7° 10.6° 14.5° 23.9° 0.6km/h dir SSE 12.9km/h dir NO 12.6° 0 61.2   1013.7 1015.6 1016.9 71% 87.3% 94% 441 15 565
08/11/2013 10.9° 13.7° 17.4° 7.8° 12.9° 23.9° 2.7km/h dir S 38.6km/h dir ONO 10.9° 6.4 67.6 26.8mm/h 1009.1 1012 1015.3 76% 88.2% 94% 438 13 077
09/11/2013 5.9° 9.9° 13.3° 2.2° 10° 22.2° 1.4km/h dir S 19.3km/h dir S 5.9° 1.6 69.2 3.2mm/h 1013.4 1016.2 1019 61% 83.4% 96% 476 23 612
10/11/2013 3.9° 8.5° 11.8° 7.6° 13.9° 9km/h dir S 45.1km/h dir SSO 3.5° 11.2 80.4 12mm/h 1004.8 1013.8 1024.4 72% 84.1% 93% 364 10 174
11/11/2013 3.6° 5.7° 9.3° 1.7° 16.7° 12.1km/h dir N 33.8km/h dir N 0.1° 0 80.4   1024.5 1026.1 1027.4 75% 84.8% 93% 510 27 443
12/11/2013 2.2° 3.2° 5.1° 3.3° 11.1° 1.1km/h dir NNE 12.9km/h dir NNO 0.8° 0 80.4   1024.9 1026.1 1027.5 84% 90.7% 93% 269 9 704
13/11/2013 3.3° 6.2° 10.2° 0.6° 6.1° 16.7° 6.6km/h dir N 30.6km/h dir NNE 2.2° 0 80.4   1025.2 1025.9 1026.9 73% 87.6% 95% 508 18 482
14/11/2013 4.1° 5.6° 8.3° 2.8° 5.3° 11.7° 1.3km/h dir SE 24.1km/h dir N 1.6° 12.8 93.2 20.6mm/h 1018.7 1023.5 1025.9 71% 90.4% 95% 522 9 065
15/11/2013 0.7° 4.6° 7.2° -2.8° 3.6° 10° 9.8km/h dir N 41.8km/h dir N 0.7° 1.2 94.4   1015.5 1018.6 1025.6 75% 88.5% 95% 536 9 958
16/11/2013 -0.1° 2.2° 3.4° -2.8° 1.8° 4.4° 0.3km/h dir NO 11.3km/h dir ENE -0.6° 0 94.4   1025 1026.3 1027.8 92% 94.1% 95% 93 4 199
17/11/2013 2.3° 4.9° 7.1° -0.6° 4.8° 10.6° 0km/h dir NO 6.4km/h dir NNO 2.4° 0 94.4   1017.1 1021.2 1025.1 81% 89.9% 94% 209 11 078
18/11/2013 0.8° 3.1° 5.2° -1.7° 3.1° 7.2° 0.5km/h dir N 11.3km/h dir N 0.8° 0.2 94.6   1007 1011.6 1017.1 94% 95.6% 96% 200 7 081
19/11/2013 2.2° 4.4° 5.7° 1.7° 4.1° 5.6° 6.1km/h dir N 25.7km/h dir NO -0.9° 14.6 109.2 4mm/h 1005.4 1006.9 1009.1 93% 95.3% 96% 47 2 467
20/11/2013 0.4° 1.3° 2.7° -1.7° 0.3° 1.7° 0.6km/h dir NO 14.5km/h dir SSE -0.3° 6.2 115.4 2.4mm/h 1003.1 1008.2 1009.4 93% 95.2% 96% 60 2 627
21/11/2013 0.8° 1.6° 3.2° -1.1° 0.7° 3.3° 3.5km/h dir S 37km/h dir SSO -3° 11.4 126.8 46.8mm/h 996.8 998.9 1003.1 89% 94.5% 96% 165 6 881
22/11/2013 0.6° 1.4° 2.2° 0.8° 3.3° 3.2km/h dir NNO 19.3km/h dir NNO -1.9° 8.4 135.2 3.6mm/h 1000.8 1004.5 1008.6 95% 95.8% 96% 241 4 240
23/11/2013 2.1° 3.8° 5.7° 1.1° 3.1° 14.2km/h dir N 45.1km/h dir NNE -2.1° 8.4 143.6 1.6mm/h 1008.6 1009.8 1011.6 89% 93.2% 96% 74 2 471
24/11/2013 4.7° 6.4° 8.6° 2.8° 6.1° 13.9° 18.5km/h dir N 48.3km/h dir NE 0.8° 0 143.6   1011.3 1015.5 1021.4 80% 85.1% 88% 519 12 117
25/11/2013 -0.1° 5.2° -1.7° 2.8° 11.7° 15.1km/h dir N 45.1km/h dir NNE -3.4° 0 143.6   1021.4 1025.7 1029.6 63% 76.4% 91% 387 23 105
26/11/2013 -0.3° 1.9° 5.1° -2.2° 1.8° 12.8° 13km/h dir N 41.8km/h dir N -4.4° 0 143.6   1028 1029.4 1030.8 60% 76.3% 92% 376 22 394
27/11/2013 -4.7° -0.5° 3.8° -8.9° -1.1° 13.3° 6.1km/h dir N 29km/h dir N -6.8° 0 143.6   1027.7 1030.1 1032.8 58% 79.7% 91% 371 21 915
28/11/2013 -5.6° -2.2° 2.4° -9.4° -2.6° 11.7° 0.8km/h dir SSO 14.5km/h dir NO -6.6° 0 143.6   1031.2 1032.3 1033.7 72% 87.1% 93% 410 18 501
29/11/2013 -0.9° 1.4° 3.3° -2.2° 1.2° 0.2km/h dir SSE 12.9km/h dir S -0.8° 0.2 143.8   1023.2 1029.1 1031.8 77% 85.1% 91% 162 7 317
30/11/2013 1.6° 3.3° 6.4° 12.8° 8.5km/h dir N 43.5km/h dir 0 -1.5° 5.6 149.4 9.2mm/h 1017.2 1019.5 1023.2 75% 88.2% 96% 424 16 101

RETOUR ACCUEIL


Date de création : 22/12/2013 : 19:00
Dernière modification : 09/02/2015 : 18:23
Catégorie : ARCHIVES 2002 à 2016 - ANNEES 2010 à 2019 - ANNEE 2013 - NOVEMBRE 2013
Page lue 1743 fois


Réactions à cet article

Personne n'a encore laissé de commentaire.
Soyez donc le premier !